sensor_id;sensor_type;location;lat;lon;timestamp;P1;durP1;ratioP1;P2;durP2;ratioP2
15716;SDS011;7960;50.908;4.204;2022-09-14T00:00:46;11.03;;;6.30;;
15716;SDS011;7960;50.908;4.204;2022-09-14T00:03:14;11.83;;;6.50;;
15716;SDS011;7960;50.908;4.204;2022-09-14T00:05:42;10.17;;;6.47;;
15716;SDS011;7960;50.908;4.204;2022-09-14T00:08:09;11.43;;;6.60;;
15716;SDS011;7960;50.908;4.204;2022-09-14T00:10:37;8.40;;;6.37;;
15716;SDS011;7960;50.908;4.204;2022-09-14T00:13:06;13.73;;;6.10;;
15716;SDS011;7960;50.908;4.204;2022-09-14T00:15:35;8.33;;;5.87;;
15716;SDS011;7960;50.908;4.204;2022-09-14T00:18:03;7.73;;;6.30;;
15716;SDS011;7960;50.908;4.204;2022-09-14T00:20:31;10.10;;;6.00;;
15716;SDS011;7960;50.908;4.204;2022-09-14T00:22:58;9.23;;;6.00;;
15716;SDS011;7960;50.908;4.204;2022-09-14T00:25:25;10.53;;;6.27;;
15716;SDS011;7960;50.908;4.204;2022-09-14T00:27:53;10.83;;;6.20;;
15716;SDS011;7960;50.908;4.204;2022-09-14T00:30:21;12.03;;;5.87;;
15716;SDS011;7960;50.908;4.204;2022-09-14T00:32:50;10.03;;;5.37;;
15716;SDS011;7960;50.908;4.204;2022-09-14T00:35:17;8.03;;;5.33;;
15716;SDS011;7960;50.908;4.204;2022-09-14T00:37:44;9.10;;;5.40;;
15716;SDS011;7960;50.908;4.204;2022-09-14T00:40:15;6.17;;;5.33;;
15716;SDS011;7960;50.908;4.204;2022-09-14T00:42:42;12.57;;;5.67;;
15716;SDS011;7960;50.908;4.204;2022-09-14T00:45:12;8.53;;;5.70;;
15716;SDS011;7960;50.908;4.204;2022-09-14T00:47:40;8.80;;;5.27;;
15716;SDS011;7960;50.908;4.204;2022-09-14T00:50:09;8.33;;;5.37;;
15716;SDS011;7960;50.908;4.204;2022-09-14T00:52:38;8.53;;;4.90;;
15716;SDS011;7960;50.908;4.204;2022-09-14T00:55:09;9.13;;;5.30;;
15716;SDS011;7960;50.908;4.204;2022-09-14T00:57:39;9.17;;;5.57;;
15716;SDS011;7960;50.908;4.204;2022-09-14T01:00:08;6.43;;;5.00;;
15716;SDS011;7960;50.908;4.204;2022-09-14T01:02:37;9.80;;;4.73;;
15716;SDS011;7960;50.908;4.204;2022-09-14T01:05:04;6.00;;;5.10;;
15716;SDS011;7960;50.908;4.204;2022-09-14T01:07:37;9.03;;;5.10;;
15716;SDS011;7960;50.908;4.204;2022-09-14T01:10:14;13.00;;;5.10;;
15716;SDS011;7960;50.908;4.204;2022-09-14T01:12:48;6.13;;;4.80;;
15716;SDS011;7960;50.908;4.204;2022-09-14T01:15:24;8.70;;;4.73;;
15716;SDS011;7960;50.908;4.204;2022-09-14T01:17:57;9.93;;;5.17;;
15716;SDS011;7960;50.908;4.204;2022-09-14T01:20:33;10.10;;;4.97;;
15716;SDS011;7960;50.908;4.204;2022-09-14T01:23:07;10.33;;;4.90;;
15716;SDS011;7960;50.908;4.204;2022-09-14T01:25:44;8.33;;;5.07;;
15716;SDS011;7960;50.908;4.204;2022-09-14T01:28:34;8.23;;;4.90;;
15716;SDS011;7960;50.908;4.204;2022-09-14T01:31:08;7.73;;;5.07;;
15716;SDS011;7960;50.908;4.204;2022-09-14T01:33:42;8.30;;;4.77;;
15716;SDS011;7960;50.908;4.204;2022-09-14T01:36:16;7.97;;;4.77;;
15716;SDS011;7960;50.908;4.204;2022-09-14T01:38:46;11.83;;;4.93;;
15716;SDS011;7960;50.908;4.204;2022-09-14T01:41:17;8.63;;;4.70;;
15716;SDS011;7960;50.908;4.204;2022-09-14T01:43:50;6.47;;;4.50;;
15716;SDS011;7960;50.908;4.204;2022-09-14T01:46:21;9.50;;;4.83;;
15716;SDS011;7960;50.908;4.204;2022-09-14T01:48:52;5.53;;;4.83;;
15716;SDS011;7960;50.908;4.204;2022-09-14T01:51:25;6.70;;;4.40;;
15716;SDS011;7960;50.908;4.204;2022-09-14T01:53:57;6.97;;;4.93;;
15716;SDS011;7960;50.908;4.204;2022-09-14T01:56:31;6.17;;;4.33;;
15716;SDS011;7960;50.908;4.204;2022-09-14T01:59:02;6.87;;;4.60;;
15716;SDS011;7960;50.908;4.204;2022-09-14T02:01:34;8.00;;;5.20;;
15716;SDS011;7960;50.908;4.204;2022-09-14T02:04:06;6.27;;;4.80;;
15716;SDS011;7960;50.908;4.204;2022-09-14T02:06:38;6.60;;;4.83;;
15716;SDS011;7960;50.908;4.204;2022-09-14T02:09:08;8.53;;;4.47;;
15716;SDS011;7960;50.908;4.204;2022-09-14T02:11:37;6.63;;;4.30;;
15716;SDS011;7960;50.908;4.204;2022-09-14T02:14:06;7.23;;;4.70;;
15716;SDS011;7960;50.908;4.204;2022-09-14T02:16:33;8.20;;;4.30;;
15716;SDS011;7960;50.908;4.204;2022-09-14T02:19:01;7.43;;;4.67;;
15716;SDS011;7960;50.908;4.204;2022-09-14T02:21:28;5.97;;;4.50;;
15716;SDS011;7960;50.908;4.204;2022-09-14T02:23:57;7.67;;;4.73;;
15716;SDS011;7960;50.908;4.204;2022-09-14T02:26:25;11.23;;;5.03;;
15716;SDS011;7960;50.908;4.204;2022-09-14T02:28:53;9.63;;;4.83;;
15716;SDS011;7960;50.908;4.204;2022-09-14T02:31:25;10.57;;;5.03;;
15716;SDS011;7960;50.908;4.204;2022-09-14T02:34:00;6.50;;;5.00;;
15716;SDS011;7960;50.908;4.204;2022-09-14T02:36:34;8.03;;;4.80;;
15716;SDS011;7960;50.908;4.204;2022-09-14T02:39:11;10.37;;;5.07;;
15716;SDS011;7960;50.908;4.204;2022-09-14T02:41:47;8.83;;;5.50;;
15716;SDS011;7960;50.908;4.204;2022-09-14T02:44:17;8.63;;;5.27;;
15716;SDS011;7960;50.908;4.204;2022-09-14T02:46:53;9.20;;;5.20;;
15716;SDS011;7960;50.908;4.204;2022-09-14T02:49:25;8.30;;;5.93;;
15716;SDS011;7960;50.908;4.204;2022-09-14T02:52:00;8.70;;;5.80;;
15716;SDS011;7960;50.908;4.204;2022-09-14T02:54:31;9.83;;;6.27;;
15716;SDS011;7960;50.908;4.204;2022-09-14T02:57:02;7.83;;;6.13;;
15716;SDS011;7960;50.908;4.204;2022-09-14T02:59:30;9.57;;;6.30;;
15716;SDS011;7960;50.908;4.204;2022-09-14T03:01:58;10.23;;;6.60;;
15716;SDS011;7960;50.908;4.204;2022-09-14T03:04:26;10.30;;;6.60;;
15716;SDS011;7960;50.908;4.204;2022-09-14T03:06:53;9.57;;;6.77;;
15716;SDS011;7960;50.908;4.204;2022-09-14T03:09:20;7.03;;;5.87;;
15716;SDS011;7960;50.908;4.204;2022-09-14T03:11:47;7.60;;;6.30;;
15716;SDS011;7960;50.908;4.204;2022-09-14T03:14:14;11.07;;;6.50;;
15716;SDS011;7960;50.908;4.204;2022-09-14T03:16:41;14.47;;;6.83;;
15716;SDS011;7960;50.908;4.204;2022-09-14T03:19:10;9.80;;;6.50;;
15716;SDS011;7960;50.908;4.204;2022-09-14T03:21:37;8.93;;;5.93;;
15716;SDS011;7960;50.908;4.204;2022-09-14T03:24:04;11.33;;;7.03;;
15716;SDS011;7960;50.908;4.204;2022-09-14T03:26:31;11.53;;;6.50;;
15716;SDS011;7960;50.908;4.204;2022-09-14T03:29:02;8.20;;;6.23;;
15716;SDS011;7960;50.908;4.204;2022-09-14T03:31:30;10.37;;;6.53;;
15716;SDS011;7960;50.908;4.204;2022-09-14T03:33:58;10.57;;;6.70;;
15716;SDS011;7960;50.908;4.204;2022-09-14T03:36:28;11.30;;;7.10;;
15716;SDS011;7960;50.908;4.204;2022-09-14T03:38:56;10.60;;;7.37;;
15716;SDS011;7960;50.908;4.204;2022-09-14T03:41:25;8.47;;;6.33;;
15716;SDS011;7960;50.908;4.204;2022-09-14T03:43:53;9.87;;;6.87;;
15716;SDS011;7960;50.908;4.204;2022-09-14T03:46:22;10.27;;;6.30;;
15716;SDS011;7960;50.908;4.204;2022-09-14T03:48:50;12.13;;;7.33;;
15716;SDS011;7960;50.908;4.204;2022-09-14T03:51:17;10.27;;;6.57;;
15716;SDS011;7960;50.908;4.204;2022-09-14T03:53:45;12.60;;;7.00;;
15716;SDS011;7960;50.908;4.204;2022-09-14T03:56:13;10.20;;;6.67;;
15716;SDS011;7960;50.908;4.204;2022-09-14T03:58:41;9.40;;;6.90;;
15716;SDS011;7960;50.908;4.204;2022-09-14T04:01:09;10.73;;;6.53;;
15716;SDS011;7960;50.908;4.204;2022-09-14T04:03:39;10.53;;;6.53;;
15716;SDS011;7960;50.908;4.204;2022-09-14T04:06:07;12.43;;;6.57;;
15716;SDS011;7960;50.908;4.204;2022-09-14T04:08:35;11.07;;;7.33;;
15716;SDS011;7960;50.908;4.204;2022-09-14T04:11:09;11.20;;;6.97;;
15716;SDS011;7960;50.908;4.204;2022-09-14T04:13:38;11.00;;;6.60;;
15716;SDS011;7960;50.908;4.204;2022-09-14T04:16:05;14.53;;;7.87;;
15716;SDS011;7960;50.908;4.204;2022-09-14T04:18:33;13.30;;;8.20;;
15716;SDS011;7960;50.908;4.204;2022-09-14T04:21:01;12.43;;;7.97;;
15716;SDS011;7960;50.908;4.204;2022-09-14T04:23:30;12.17;;;7.53;;
15716;SDS011;7960;50.908;4.204;2022-09-14T04:25:58;12.27;;;7.47;;
15716;SDS011;7960;50.908;4.204;2022-09-14T04:28:27;14.20;;;7.90;;
15716;SDS011;7960;50.908;4.204;2022-09-14T04:30:55;11.00;;;8.10;;
15716;SDS011;7960;50.908;4.204;2022-09-14T04:33:22;9.53;;;7.90;;
15716;SDS011;7960;50.908;4.204;2022-09-14T04:35:57;11.27;;;8.47;;
15716;SDS011;7960;50.908;4.204;2022-09-14T04:38:25;9.83;;;8.40;;
15716;SDS011;7960;50.908;4.204;2022-09-14T04:40:53;9.07;;;7.87;;
15716;SDS011;7960;50.908;4.204;2022-09-14T04:43:20;10.03;;;7.57;;
15716;SDS011;7960;50.908;4.204;2022-09-14T04:45:48;11.47;;;7.97;;
15716;SDS011;7960;50.908;4.204;2022-09-14T04:48:16;9.57;;;8.20;;
15716;SDS011;7960;50.908;4.204;2022-09-14T04:50:43;9.27;;;8.27;;
15716;SDS011;7960;50.908;4.204;2022-09-14T04:53:11;10.03;;;8.77;;
15716;SDS011;7960;50.908;4.204;2022-09-14T04:55:38;12.63;;;8.70;;
15716;SDS011;7960;50.908;4.204;2022-09-14T04:58:04;9.80;;;8.57;;
15716;SDS011;7960;50.908;4.204;2022-09-14T05:00:32;11.43;;;8.97;;
15716;SDS011;7960;50.908;4.204;2022-09-14T05:03:02;10.57;;;8.97;;
15716;SDS011;7960;50.908;4.204;2022-09-14T05:05:30;12.23;;;9.50;;
15716;SDS011;7960;50.908;4.204;2022-09-14T05:08:00;11.07;;;9.70;;
15716;SDS011;7960;50.908;4.204;2022-09-14T05:10:27;12.07;;;10.47;;
15716;SDS011;7960;50.908;4.204;2022-09-14T05:12:54;13.30;;;10.63;;
15716;SDS011;7960;50.908;4.204;2022-09-14T05:15:21;12.93;;;10.70;;
15716;SDS011;7960;50.908;4.204;2022-09-14T05:17:48;12.77;;;11.30;;
15716;SDS011;7960;50.908;4.204;2022-09-14T05:20:16;12.43;;;11.17;;
15716;SDS011;7960;50.908;4.204;2022-09-14T05:22:43;12.73;;;11.37;;
15716;SDS011;7960;50.908;4.204;2022-09-14T05:25:14;12.67;;;11.37;;
15716;SDS011;7960;50.908;4.204;2022-09-14T05:27:41;13.07;;;11.33;;
15716;SDS011;7960;50.908;4.204;2022-09-14T05:30:08;11.93;;;10.73;;
15716;SDS011;7960;50.908;4.204;2022-09-14T05:32:35;13.60;;;11.67;;
15716;SDS011;7960;50.908;4.204;2022-09-14T05:35:02;12.67;;;11.37;;
15716;SDS011;7960;50.908;4.204;2022-09-14T05:37:31;13.70;;;12.10;;
15716;SDS011;7960;50.908;4.204;2022-09-14T05:39:58;12.90;;;11.60;;
15716;SDS011;7960;50.908;4.204;2022-09-14T05:42:25;13.63;;;11.77;;
15716;SDS011;7960;50.908;4.204;2022-09-14T05:44:51;15.67;;;11.77;;
15716;SDS011;7960;50.908;4.204;2022-09-14T05:47:18;13.20;;;11.90;;
15716;SDS011;7960;50.908;4.204;2022-09-14T05:49:45;13.80;;;12.40;;
15716;SDS011;7960;50.908;4.204;2022-09-14T05:52:12;14.33;;;12.33;;
15716;SDS011;7960;50.908;4.204;2022-09-14T05:54:40;14.13;;;12.13;;
15716;SDS011;7960;50.908;4.204;2022-09-14T05:57:07;14.80;;;13.33;;
15716;SDS011;7960;50.908;4.204;2022-09-14T05:59:35;13.03;;;11.73;;
15716;SDS011;7960;50.908;4.204;2022-09-14T06:02:02;16.20;;;13.03;;
15716;SDS011;7960;50.908;4.204;2022-09-14T06:04:30;15.00;;;13.23;;
15716;SDS011;7960;50.908;4.204;2022-09-14T06:06:56;15.47;;;13.87;;
15716;SDS011;7960;50.908;4.204;2022-09-14T06:09:23;16.70;;;14.90;;
15716;SDS011;7960;50.908;4.204;2022-09-14T06:11:51;16.10;;;14.50;;
15716;SDS011;7960;50.908;4.204;2022-09-14T06:14:19;19.90;;;14.37;;
15716;SDS011;7960;50.908;4.204;2022-09-14T06:16:46;16.60;;;14.47;;
15716;SDS011;7960;50.908;4.204;2022-09-14T06:19:13;16.53;;;14.63;;
15716;SDS011;7960;50.908;4.204;2022-09-14T06:21:40;17.10;;;15.17;;
15716;SDS011;7960;50.908;4.204;2022-09-14T06:24:08;18.93;;;16.97;;
15716;SDS011;7960;50.908;4.204;2022-09-14T06:26:37;17.80;;;15.10;;
15716;SDS011;7960;50.908;4.204;2022-09-14T06:29:05;17.33;;;15.43;;
15716;SDS011;7960;50.908;4.204;2022-09-14T06:31:33;17.00;;;15.20;;
15716;SDS011;7960;50.908;4.204;2022-09-14T06:34:00;16.70;;;14.90;;
15716;SDS011;7960;50.908;4.204;2022-09-14T06:36:27;16.53;;;14.80;;
15716;SDS011;7960;50.908;4.204;2022-09-14T06:38:55;20.63;;;16.63;;
15716;SDS011;7960;50.908;4.204;2022-09-14T06:41:25;17.63;;;15.17;;
15716;SDS011;7960;50.908;4.204;2022-09-14T06:43:55;18.80;;;15.60;;
15716;SDS011;7960;50.908;4.204;2022-09-14T06:46:25;18.37;;;16.47;;
15716;SDS011;7960;50.908;4.204;2022-09-14T06:48:55;17.70;;;15.80;;
15716;SDS011;7960;50.908;4.204;2022-09-14T06:51:25;16.90;;;15.10;;
15716;SDS011;7960;50.908;4.204;2022-09-14T06:53:54;16.67;;;14.67;;
15716;SDS011;7960;50.908;4.204;2022-09-14T06:56:23;19.90;;;16.30;;
15716;SDS011;7960;50.908;4.204;2022-09-14T06:58:50;17.73;;;15.20;;
15716;SDS011;7960;50.908;4.204;2022-09-14T07:01:17;18.20;;;16.10;;
15716;SDS011;7960;50.908;4.204;2022-09-14T07:03:47;17.47;;;15.53;;
15716;SDS011;7960;50.908;4.204;2022-09-14T07:06:18;17.83;;;15.70;;
15716;SDS011;7960;50.908;4.204;2022-09-14T07:08:47;17.13;;;15.33;;
15716;SDS011;7960;50.908;4.204;2022-09-14T07:11:15;22.80;;;14.97;;
15716;SDS011;7960;50.908;4.204;2022-09-14T07:13:43;16.87;;;14.90;;
15716;SDS011;7960;50.908;4.204;2022-09-14T07:16:11;17.70;;;15.53;;
15716;SDS011;7960;50.908;4.204;2022-09-14T07:18:39;21.00;;;15.93;;
15716;SDS011;7960;50.908;4.204;2022-09-14T07:21:09;17.77;;;15.17;;
15716;SDS011;7960;50.908;4.204;2022-09-14T07:23:38;17.67;;;14.97;;
15716;SDS011;7960;50.908;4.204;2022-09-14T07:26:08;20.30;;;15.83;;
15716;SDS011;7960;50.908;4.204;2022-09-14T07:28:36;20.43;;;16.73;;
15716;SDS011;7960;50.908;4.204;2022-09-14T07:31:05;20.43;;;15.43;;
15716;SDS011;7960;50.908;4.204;2022-09-14T07:33:41;19.00;;;15.67;;
15716;SDS011;7960;50.908;4.204;2022-09-14T07:36:10;17.73;;;14.50;;
15716;SDS011;7960;50.908;4.204;2022-09-14T07:38:37;19.10;;;15.60;;
15716;SDS011;7960;50.908;4.204;2022-09-14T07:41:05;17.87;;;15.10;;
15716;SDS011;7960;50.908;4.204;2022-09-14T07:43:32;18.67;;;15.13;;
15716;SDS011;7960;50.908;4.204;2022-09-14T07:46:00;18.80;;;15.47;;
15716;SDS011;7960;50.908;4.204;2022-09-14T07:48:28;15.33;;;13.47;;
15716;SDS011;7960;50.908;4.204;2022-09-14T07:50:58;17.97;;;14.23;;
15716;SDS011;7960;50.908;4.204;2022-09-14T07:53:27;16.30;;;14.63;;
15716;SDS011;7960;50.908;4.204;2022-09-14T07:55:56;17.17;;;14.53;;
15716;SDS011;7960;50.908;4.204;2022-09-14T07:58:24;16.50;;;13.00;;
15716;SDS011;7960;50.908;4.204;2022-09-14T08:00:56;13.90;;;12.27;;
15716;SDS011;7960;50.908;4.204;2022-09-14T08:03:23;16.60;;;14.13;;
15716;SDS011;7960;50.908;4.204;2022-09-14T08:05:56;15.73;;;13.37;;
15716;SDS011;7960;50.908;4.204;2022-09-14T08:08:28;17.67;;;12.20;;
15716;SDS011;7960;50.908;4.204;2022-09-14T08:11:01;17.57;;;12.63;;
15716;SDS011;7960;50.908;4.204;2022-09-14T08:13:29;17.33;;;12.97;;
15716;SDS011;7960;50.908;4.204;2022-09-14T08:15:57;16.10;;;12.40;;
15716;SDS011;7960;50.908;4.204;2022-09-14T08:18:26;14.33;;;12.87;;
15716;SDS011;7960;50.908;4.204;2022-09-14T08:20:55;14.90;;;12.60;;
15716;SDS011;7960;50.908;4.204;2022-09-14T08:23:29;13.67;;;11.57;;
15716;SDS011;7960;50.908;4.204;2022-09-14T08:26:00;13.30;;;10.97;;
15716;SDS011;7960;50.908;4.204;2022-09-14T08:28:27;14.60;;;11.37;;
15716;SDS011;7960;50.908;4.204;2022-09-14T08:30:54;11.93;;;10.43;;
15716;SDS011;7960;50.908;4.204;2022-09-14T08:33:21;11.93;;;10.00;;
15716;SDS011;7960;50.908;4.204;2022-09-14T08:35:50;12.23;;;9.37;;
15716;SDS011;7960;50.908;4.204;2022-09-14T08:38:18;9.43;;;8.43;;
15716;SDS011;7960;50.908;4.204;2022-09-14T08:40:47;9.30;;;8.40;;
15716;SDS011;7960;50.908;4.204;2022-09-14T08:43:15;14.37;;;12.07;;
15716;SDS011;7960;50.908;4.204;2022-09-14T08:45:44;11.43;;;8.50;;
15716;SDS011;7960;50.908;4.204;2022-09-14T08:48:15;7.27;;;6.57;;
15716;SDS011;7960;50.908;4.204;2022-09-14T08:50:47;7.90;;;6.83;;
15716;SDS011;7960;50.908;4.204;2022-09-14T08:53:19;7.47;;;6.70;;
15716;SDS011;7960;50.908;4.204;2022-09-14T08:55:49;7.87;;;6.83;;
15716;SDS011;7960;50.908;4.204;2022-09-14T08:58:22;7.87;;;7.17;;
15716;SDS011;7960;50.908;4.204;2022-09-14T09:00:57;8.20;;;7.30;;
15716;SDS011;7960;50.908;4.204;2022-09-14T09:06:47;8.60;;;7.80;;
15716;SDS011;7960;50.908;4.204;2022-09-14T09:09:22;7.80;;;7.07;;
15716;SDS011;7960;50.908;4.204;2022-09-14T09:11:54;8.50;;;7.70;;
15716;SDS011;7960;50.908;4.204;2022-09-14T09:14:22;7.93;;;7.23;;
15716;SDS011;7960;50.908;4.204;2022-09-14T09:16:54;9.77;;;7.80;;
15716;SDS011;7960;50.908;4.204;2022-09-14T09:19:24;8.20;;;7.40;;
15716;SDS011;7960;50.908;4.204;2022-09-14T09:21:55;10.23;;;8.20;;
15716;SDS011;7960;50.908;4.204;2022-09-14T09:24:25;9.50;;;8.50;;
15716;SDS011;7960;50.908;4.204;2022-09-14T09:26:56;11.07;;;9.07;;
15716;SDS011;7960;50.908;4.204;2022-09-14T09:29:23;11.10;;;8.60;;
15716;SDS011;7960;50.908;4.204;2022-09-14T09:31:51;10.50;;;9.27;;
15716;SDS011;7960;50.908;4.204;2022-09-14T09:34:22;11.87;;;9.40;;
15716;SDS011;7960;50.908;4.204;2022-09-14T09:36:51;10.40;;;9.40;;
15716;SDS011;7960;50.908;4.204;2022-09-14T09:39:21;10.83;;;9.07;;
15716;SDS011;7960;50.908;4.204;2022-09-14T09:41:50;11.23;;;8.67;;
15716;SDS011;7960;50.908;4.204;2022-09-14T09:44:22;11.43;;;10.23;;
15716;SDS011;7960;50.908;4.204;2022-09-14T09:46:49;11.93;;;10.73;;
15716;SDS011;7960;50.908;4.204;2022-09-14T09:49:19;11.13;;;10.03;;
15716;SDS011;7960;50.908;4.204;2022-09-14T09:51:48;10.87;;;9.77;;
15716;SDS011;7960;50.908;4.204;2022-09-14T09:54:19;11.10;;;10.00;;
15716;SDS011;7960;50.908;4.204;2022-09-14T09:56:52;11.83;;;10.63;;
15716;SDS011;7960;50.908;4.204;2022-09-14T09:59:27;10.97;;;9.87;;
15716;SDS011;7960;50.908;4.204;2022-09-14T10:04:59;14.77;;;12.43;;
15716;SDS011;7960;50.908;4.204;2022-09-14T10:07:27;12.67;;;11.40;;
15716;SDS011;7960;50.908;4.204;2022-09-14T10:09:58;12.77;;;11.57;;
15716;SDS011;7960;50.908;4.204;2022-09-14T10:12:26;12.73;;;11.43;;
15716;SDS011;7960;50.908;4.204;2022-09-14T10:15:04;14.03;;;11.87;;
15716;SDS011;7960;50.908;4.204;2022-09-14T10:17:38;12.37;;;11.17;;
15716;SDS011;7960;50.908;4.204;2022-09-14T10:20:05;15.07;;;12.83;;
15716;SDS011;7960;50.908;4.204;2022-09-14T10:22:45;14.00;;;12.60;;
15716;SDS011;7960;50.908;4.204;2022-09-14T10:25:19;16.60;;;12.97;;
15716;SDS011;7960;50.908;4.204;2022-09-14T10:27:47;17.33;;;12.17;;
15716;SDS011;7960;50.908;4.204;2022-09-14T10:30:24;13.80;;;12.40;;
15716;SDS011;7960;50.908;4.204;2022-09-14T10:32:54;13.20;;;11.87;;
15716;SDS011;7960;50.908;4.204;2022-09-14T10:35:26;13.60;;;11.83;;
15716;SDS011;7960;50.908;4.204;2022-09-14T10:38:07;14.43;;;12.63;;
15716;SDS011;7960;50.908;4.204;2022-09-14T10:40:44;14.00;;;12.50;;
15716;SDS011;7960;50.908;4.204;2022-09-14T10:43:19;14.60;;;12.27;;
15716;SDS011;7960;50.908;4.204;2022-09-14T10:45:55;15.63;;;13.67;;
15716;SDS011;7960;50.908;4.204;2022-09-14T10:48:45;16.03;;;13.53;;
15716;SDS011;7960;50.908;4.204;2022-09-14T10:51:33;16.70;;;14.43;;
15716;SDS011;7960;50.908;4.204;2022-09-14T10:54:18;16.93;;;13.93;;
15716;SDS011;7960;50.908;4.204;2022-09-14T10:57:02;20.07;;;15.23;;
15716;SDS011;7960;50.908;4.204;2022-09-14T10:59:40;18.67;;;15.57;;
15716;SDS011;7960;50.908;4.204;2022-09-14T11:02:24;18.77;;;14.80;;
15716;SDS011;7960;50.908;4.204;2022-09-14T11:05:10;17.70;;;15.77;;
15716;SDS011;7960;50.908;4.204;2022-09-14T11:07:42;17.43;;;15.70;;
15716;SDS011;7960;50.908;4.204;2022-09-14T11:10:20;19.63;;;16.53;;
15716;SDS011;7960;50.908;4.204;2022-09-14T11:12:56;17.67;;;15.67;;
15716;SDS011;7960;50.908;4.204;2022-09-14T11:15:38;18.53;;;16.53;;
15716;SDS011;7960;50.908;4.204;2022-09-14T11:18:17;19.17;;;15.33;;
15716;SDS011;7960;50.908;4.204;2022-09-14T11:20:55;21.83;;;16.73;;
15716;SDS011;7960;50.908;4.204;2022-09-14T11:23:35;20.83;;;18.10;;
15716;SDS011;7960;50.908;4.204;2022-09-14T11:26:13;19.70;;;15.70;;
15716;SDS011;7960;50.908;4.204;2022-09-14T11:28:45;18.63;;;16.07;;
15716;SDS011;7960;50.908;4.204;2022-09-14T11:31:17;19.67;;;16.90;;
15716;SDS011;7960;50.908;4.204;2022-09-14T11:33:51;18.90;;;16.70;;
15716;SDS011;7960;50.908;4.204;2022-09-14T11:36:21;18.37;;;16.37;;
15716;SDS011;7960;50.908;4.204;2022-09-14T11:38:52;19.60;;;17.50;;
15716;SDS011;7960;50.908;4.204;2022-09-14T11:41:23;24.57;;;16.33;;
15716;SDS011;7960;50.908;4.204;2022-09-14T11:43:56;18.70;;;16.13;;
15716;SDS011;7960;50.908;4.204;2022-09-14T11:46:29;20.67;;;16.47;;
15716;SDS011;7960;50.908;4.204;2022-09-14T11:49:02;18.83;;;15.10;;
15716;SDS011;7960;50.908;4.204;2022-09-14T11:51:38;18.37;;;16.43;;
15716;SDS011;7960;50.908;4.204;2022-09-14T11:54:11;17.30;;;15.50;;
15716;SDS011;7960;50.908;4.204;2022-09-14T11:56:41;20.70;;;16.77;;
15716;SDS011;7960;50.908;4.204;2022-09-14T12:07:58;16.67;;;14.80;;
15716;SDS011;7960;50.908;4.204;2022-09-14T12:10:30;17.43;;;14.80;;
15716;SDS011;7960;50.908;4.204;2022-09-14T12:13:27;14.47;;;12.90;;
15716;SDS011;7960;50.908;4.204;2022-09-14T12:15:59;13.43;;;12.13;;
15716;SDS011;7960;50.908;4.204;2022-09-14T12:18:28;17.03;;;13.50;;
15716;SDS011;7960;50.908;4.204;2022-09-14T12:21:02;14.70;;;13.23;;
15716;SDS011;7960;50.908;4.204;2022-09-14T12:23:40;17.33;;;14.13;;
15716;SDS011;7960;50.908;4.204;2022-09-14T12:29:00;15.47;;;13.23;;
15716;SDS011;7960;50.908;4.204;2022-09-14T12:31:32;13.83;;;12.43;;
15716;SDS011;7960;50.908;4.204;2022-09-14T12:34:16;18.60;;;13.80;;
15716;SDS011;7960;50.908;4.204;2022-09-14T12:37:25;28.37;;;13.97;;
15716;SDS011;7960;50.908;4.204;2022-09-14T12:48:58;12.77;;;11.43;;
15716;SDS011;7960;50.908;4.204;2022-09-14T12:51:29;12.97;;;11.57;;
15716;SDS011;7960;50.908;4.204;2022-09-14T12:54:09;12.27;;;11.07;;
15716;SDS011;7960;50.908;4.204;2022-09-14T12:56:50;22.17;;;12.07;;
15716;SDS011;7960;50.908;4.204;2022-09-14T12:59:28;17.17;;;13.30;;
15716;SDS011;7960;50.908;4.204;2022-09-14T13:02:11;14.40;;;11.77;;
15716;SDS011;7960;50.908;4.204;2022-09-14T13:04:51;16.40;;;12.10;;
15716;SDS011;7960;50.908;4.204;2022-09-14T13:07:19;14.90;;;12.20;;
15716;SDS011;7960;50.908;4.204;2022-09-14T13:09:54;13.80;;;11.47;;
15716;SDS011;7960;50.908;4.204;2022-09-14T13:12:22;16.37;;;12.53;;
15716;SDS011;7960;50.908;4.204;2022-09-14T13:14:54;15.93;;;11.40;;
15716;SDS011;7960;50.908;4.204;2022-09-14T13:17:24;18.77;;;12.27;;
15716;SDS011;7960;50.908;4.204;2022-09-14T13:19:52;13.70;;;12.30;;
15716;SDS011;7960;50.908;4.204;2022-09-14T13:22:21;12.40;;;11.20;;
15716;SDS011;7960;50.908;4.204;2022-09-14T13:24:51;14.27;;;12.77;;
15716;SDS011;7960;50.908;4.204;2022-09-14T13:27:22;21.60;;;15.90;;
15716;SDS011;7960;50.908;4.204;2022-09-14T13:29:57;27.57;;;18.13;;
15716;SDS011;7960;50.908;4.204;2022-09-14T13:32:26;19.93;;;15.60;;
15716;SDS011;7960;50.908;4.204;2022-09-14T13:34:54;16.70;;;15.00;;
15716;SDS011;7960;50.908;4.204;2022-09-14T13:37:21;19.93;;;15.93;;
15716;SDS011;7960;50.908;4.204;2022-09-14T13:39:51;21.73;;;16.43;;
15716;SDS011;7960;50.908;4.204;2022-09-14T13:42:21;13.50;;;10.50;;
15716;SDS011;7960;50.908;4.204;2022-09-14T13:44:57;11.17;;;10.17;;
15716;SDS011;7960;50.908;4.204;2022-09-14T13:47:51;14.17;;;10.00;;
15716;SDS011;7960;50.908;4.204;2022-09-14T13:50:29;12.00;;;10.23;;
15716;SDS011;7960;50.908;4.204;2022-09-14T13:52:56;10.83;;;9.83;;
15716;SDS011;7960;50.908;4.204;2022-09-14T13:55:26;12.00;;;9.30;;
15716;SDS011;7960;50.908;4.204;2022-09-14T13:58:03;10.37;;;9.13;;
15716;SDS011;7960;50.908;4.204;2022-09-14T14:00:48;9.63;;;8.73;;
15716;SDS011;7960;50.908;4.204;2022-09-14T14:03:25;10.30;;;9.00;;
15716;SDS011;7960;50.908;4.204;2022-09-14T14:05:58;11.10;;;9.27;;
15716;SDS011;7960;50.908;4.204;2022-09-14T14:08:30;10.53;;;9.53;;
15716;SDS011;7960;50.908;4.204;2022-09-14T14:11:03;27.67;;;13.67;;
15716;SDS011;7960;50.908;4.204;2022-09-14T14:13:32;12.67;;;9.83;;
15716;SDS011;7960;50.908;4.204;2022-09-14T14:16:13;14.03;;;12.50;;
15716;SDS011;7960;50.908;4.204;2022-09-14T14:18:42;13.77;;;12.47;;
15716;SDS011;7960;50.908;4.204;2022-09-14T14:21:25;12.10;;;9.43;;
15716;SDS011;7960;50.908;4.204;2022-09-14T14:24:15;11.00;;;9.53;;
15716;SDS011;7960;50.908;4.204;2022-09-14T14:26:51;10.00;;;9.20;;
15716;SDS011;7960;50.908;4.204;2022-09-14T14:29:19;9.43;;;8.63;;
15716;SDS011;7960;50.908;4.204;2022-09-14T14:31:47;12.50;;;9.20;;
15716;SDS011;7960;50.908;4.204;2022-09-14T14:34:18;12.27;;;8.73;;
15716;SDS011;7960;50.908;4.204;2022-09-14T14:36:47;11.60;;;9.40;;
15716;SDS011;7960;50.908;4.204;2022-09-14T14:39:18;9.80;;;8.73;;
15716;SDS011;7960;50.908;4.204;2022-09-14T14:41:47;11.27;;;8.53;;
15716;SDS011;7960;50.908;4.204;2022-09-14T14:44:17;13.90;;;9.73;;
15716;SDS011;7960;50.908;4.204;2022-09-14T14:46:45;9.50;;;8.20;;
15716;SDS011;7960;50.908;4.204;2022-09-14T14:49:15;9.83;;;8.83;;
15716;SDS011;7960;50.908;4.204;2022-09-14T14:51:44;9.90;;;7.47;;
15716;SDS011;7960;50.908;4.204;2022-09-14T14:54:12;12.27;;;8.60;;
15716;SDS011;7960;50.908;4.204;2022-09-14T14:56:40;8.43;;;7.73;;
15716;SDS011;7960;50.908;4.204;2022-09-14T14:59:21;11.40;;;7.33;;
15716;SDS011;7960;50.908;4.204;2022-09-14T15:01:52;8.90;;;8.00;;
15716;SDS011;7960;50.908;4.204;2022-09-14T15:04:19;9.60;;;7.70;;
15716;SDS011;7960;50.908;4.204;2022-09-14T15:06:47;8.43;;;7.53;;
15716;SDS011;7960;50.908;4.204;2022-09-14T15:09:15;8.67;;;7.87;;
15716;SDS011;7960;50.908;4.204;2022-09-14T15:11:43;10.10;;;8.70;;
15716;SDS011;7960;50.908;4.204;2022-09-14T15:14:11;14.03;;;9.43;;
15716;SDS011;7960;50.908;4.204;2022-09-14T15:16:41;11.33;;;8.47;;
15716;SDS011;7960;50.908;4.204;2022-09-14T15:19:08;9.40;;;8.50;;
15716;SDS011;7960;50.908;4.204;2022-09-14T15:21:36;9.33;;;8.43;;
15716;SDS011;7960;50.908;4.204;2022-09-14T15:24:03;11.13;;;9.40;;
15716;SDS011;7960;50.908;4.204;2022-09-14T15:26:30;14.97;;;9.20;;
15716;SDS011;7960;50.908;4.204;2022-09-14T15:28:58;13.37;;;10.10;;
15716;SDS011;7960;50.908;4.204;2022-09-14T15:31:25;12.17;;;10.20;;
15716;SDS011;7960;50.908;4.204;2022-09-14T15:33:53;16.80;;;13.07;;